Time;durP1;ratioP1;P1;durP2;ratioP2;P2;SDS_P1;SDS_P2;PMS_P1;PMS_P2;Temp;Humidity;BMP_temperature;BMP_pressure;BME280_temperature;BME280_humidity;BME280_pressure;Samples;Min_cycle;Max_cycle;Signal;HPM_P1;HPM_P2
2022/09/27 00:00:23;;;;;;;10.45;3.00;;;;;;;;;;5047769;28;20457;-75
2022/09/27 00:02:50;;;;;;;6.53;3.47;;;;;;;;;;5029977;28;20025;-77
2022/09/27 00:05:16;;;;;;;7.28;2.88;;;;;;;;;;5046444;28;20534;-77
2022/09/27 00:07:43;;;;;;;6.18;3.38;;;;;;;;;;5047546;28;20031;-74
2022/09/27 00:10:09;;;;;;;6.82;3.30;;;;;;;;;;5040342;28;20025;-74
2022/09/27 00:12:36;;;;;;;9.63;3.42;;;;;;;;;;5047398;28;20021;-73
2022/09/27 00:15:02;;;;;;;10.77;3.72;;;;;;;;;;5047797;28;20021;-75
2022/09/27 00:17:29;;;;;;;9.90;3.40;;;;;;;;;;5046892;28;20447;-75
2022/09/27 00:19:55;;;;;;;14.30;3.72;;;;;;;;;;5047354;28;20520;-76
2022/09/27 00:22:22;;;;;;;9.75;3.50;;;;;;;;;;5047694;28;20047;-76
2022/09/27 00:24:49;;;;;;;6.43;3.53;;;;;;;;;;5047562;28;20013;-77
2022/09/27 00:27:15;;;;;;;8.70;3.33;;;;;;;;;;5046027;28;20092;-76
2022/09/27 00:29:41;;;;;;;13.57;4.07;;;;;;;;;;5046481;28;20104;-75
2022/09/27 00:32:08;;;;;;;7.05;3.22;;;;;;;;;;5047718;28;20051;-74
2022/09/27 00:34:34;;;;;;;7.00;3.35;;;;;;;;;;5044709;28;20481;-75
2022/09/27 00:37:00;;;;;;;8.40;3.15;;;;;;;;;;5047328;28;20017;-75
2022/09/27 00:39:26;;;;;;;6.28;2.90;;;;;;;;;;5046927;28;20028;-74
2022/09/27 00:41:52;;;;;;;13.07;3.38;;;;;;;;;;5046960;28;20401;-74
2022/09/27 00:44:25;;;;;;;8.57;3.28;;;;;;;;;;5047337;28;20100;-75
2022/09/27 00:46:57;;;;;;;8.35;2.90;;;;;;;;;;5046690;28;20032;-76
2022/09/27 00:49:26;;;;;;;9.38;3.58;;;;;;;;;;5045267;28;20497;-75
2022/09/27 00:51:58;;;;;;;6.72;3.03;;;;;;;;;;5046024;28;20048;-75
2022/09/27 00:54:26;;;;;;;9.23;2.97;;;;;;;;;;5047428;28;20048;-75
2022/09/27 00:56:52;;;;;;;8.27;3.20;;;;;;;;;;5046904;28;20024;-75
2022/09/27 00:59:34;;;;;;;8.25;3.15;;;;;;;;;;5046042;28;20458;-74
2022/09/27 01:02:00;;;;;;;;;;;;;;;;;;5046703;28;20111;-76
2022/09/27 01:04:27;;;;;;;9.43;3.72;;;;;;;;;;5047044;28;20000;-75
2022/09/27 01:06:53;;;;;;;7.05;3.67;;;;;;;;;;5046882;28;20021;-75
2022/09/27 01:09:20;;;;;;;7.13;3.35;;;;;;;;;;5047203;28;20091;-75
2022/09/27 01:12:05;;;;;;;10.55;3.47;;;;;;;;;;5028691;28;20033;-75
2022/09/27 01:14:43;;;;;;;7.72;2.72;;;;;;;;;;5040539;28;20139;-75
2022/09/27 01:17:15;;;;;;;9.73;2.80;;;;;;;;;;5041398;28;20377;-76
2022/09/27 01:19:59;;;;;;;5.60;2.90;;;;;;;;;;5046314;28;20021;-75
2022/09/27 01:22:30;;;;;;;9.43;2.90;;;;;;;;;;5039574;28;20384;-76
2022/09/27 01:25:02;;;;;;;6.32;2.60;;;;;;;;;;5046509;28;20119;-75
2022/09/27 01:27:28;;;;;;;9.65;3.40;;;;;;;;;;5046202;28;20108;-75
2022/09/27 01:30:04;;;;;;;7.78;3.30;;;;;;;;;;5045994;28;20138;-75
2022/09/27 01:32:34;;;;;;;8.02;3.22;;;;;;;;;;5028694;28;20538;-75
2022/09/27 01:35:19;;;;;;;5.68;2.88;;;;;;;;;;5046020;28;20074;-75
2022/09/27 01:38:04;;;;;;;5.53;3.22;;;;;;;;;;5043515;28;20025;-75
2022/09/27 01:40:35;;;;;;;8.38;2.85;;;;;;;;;;5044370;28;20021;-76
2022/09/27 01:43:09;;;;;;;6.43;2.75;;;;;;;;;;5046365;28;20099;-75
2022/09/27 01:45:35;;;;;;;8.00;3.05;;;;;;;;;;5046550;28;20536;-75
2022/09/27 01:48:03;;;;;;;7.85;2.85;;;;;;;;;;5046141;28;20044;-75
2022/09/27 01:50:37;;;;;;;7.18;2.90;;;;;;;;;;5028804;28;20438;-74
2022/09/27 01:53:05;;;;;;;6.80;2.80;;;;;;;;;;5043889;28;20040;-75
2022/09/27 01:55:33;;;;;;;8.13;2.80;;;;;;;;;;5045930;28;20045;-75
2022/09/27 01:58:03;;;;;;;6.63;2.92;;;;;;;;;;5046080;28;20199;-75
2022/09/27 02:00:30;;;;;;;7.35;2.90;;;;;;;;;;5046223;28;20017;-75
2022/09/27 02:03:01;;;;;;;7.95;3.28;;;;;;;;;;5043870;28;20018;-75
2022/09/27 02:05:31;;;;;;;5.53;2.58;;;;;;;;;;5046449;28;20021;-73
2022/09/27 02:07:59;;;;;;;6.80;2.83;;;;;;;;;;5046051;28;20078;-75
2022/09/27 02:10:28;;;;;;;5.75;2.92;;;;;;;;;;5045859;28;20017;-75
2022/09/27 02:13:02;;;;;;;5.68;2.30;;;;;;;;;;5033965;28;20041;-74
2022/09/27 02:15:32;;;;;;;5.13;2.45;;;;;;;;;;5044510;28;20017;-73
2022/09/27 02:18:01;;;;;;;6.97;2.35;;;;;;;;;;5045623;28;20183;-75
2022/09/27 02:20:32;;;;;;;10.48;3.22;;;;;;;;;;5045945;28;20017;-75
2022/09/27 02:23:14;;;;;;;7.55;2.60;;;;;;;;;;5045413;28;20021;-74
2022/09/27 02:25:43;;;;;;;7.50;2.50;;;;;;;;;;5044333;28;20096;-74
2022/09/27 02:28:18;;;;;;;9.88;2.88;;;;;;;;;;5045459;28;20357;-75
2022/09/27 02:30:45;;;;;;;10.30;3.10;;;;;;;;;;5045969;28;20503;-77
2022/09/27 02:33:11;;;;;;;8.82;2.55;;;;;;;;;;5043543;28;20055;-74
2022/09/27 02:35:37;;;;;;;6.63;2.53;;;;;;;;;;5045657;28;20021;-75
2022/09/27 02:38:05;;;;;;;9.50;2.60;;;;;;;;;;5045672;28;20508;-75
2022/09/27 02:40:33;;;;;;;9.73;2.92;;;;;;;;;;5045559;28;20088;-73
2022/09/27 02:43:00;;;;;;;7.47;2.70;;;;;;;;;;5045818;28;20051;-75
2022/09/27 02:45:30;;;;;;;7.68;2.58;;;;;;;;;;5044222;28;20025;-74
2022/09/27 02:48:04;;;;;;;7.07;2.80;;;;;;;;;;5045642;28;20049;-75
2022/09/27 02:50:36;;;;;;;7.45;2.90;;;;;;;;;;5045610;28;20048;-75
2022/09/27 02:53:06;;;;;;;8.93;2.70;;;;;;;;;;5045314;28;20033;-75
2022/09/27 02:55:42;;;;;;;6.17;2.70;;;;;;;;;;5045424;28;20531;-75
2022/09/27 02:58:08;;;;;;;9.77;3.03;;;;;;;;;;5046261;28;20025;-75
2022/09/27 03:00:47;;;;;;;7.57;2.78;;;;;;;;;;5049388;28;20079;-75
2022/09/27 03:03:27;;;;;;;6.40;3.17;;;;;;;;;;5049482;28;20036;-75
2022/09/27 03:05:57;;;;;;;7.50;2.95;;;;;;;;;;5049519;28;20036;-75
2022/09/27 03:08:23;;;;;;;10.32;3.15;;;;;;;;;;5041991;28;20377;-74
2022/09/27 03:10:50;;;;;;;4.60;2.65;;;;;;;;;;5047279;28;20377;-75
2022/09/27 03:13:16;;;;;;;7.90;3.20;;;;;;;;;;5049537;28;20458;-74
2022/09/27 03:15:42;;;;;;;10.98;3.33;;;;;;;;;;5049579;28;20029;-75
2022/09/27 03:18:08;;;;;;;8.75;3.28;;;;;;;;;;5042392;28;20040;-74
2022/09/27 03:20:35;;;;;;;6.18;2.97;;;;;;;;;;5043435;28;20119;-75
2022/09/27 03:23:01;;;;;;;7.10;3.30;;;;;;;;;;5043494;28;20354;-74
2022/09/27 03:25:27;;;;;;;7.55;2.95;;;;;;;;;;5042479;28;20036;-75
2022/09/27 03:27:53;;;;;;;7.35;3.05;;;;;;;;;;5043886;28;20035;-75
2022/09/27 03:30:19;;;;;;;6.28;2.95;;;;;;;;;;5043474;28;20070;-74
2022/09/27 03:32:46;;;;;;;7.03;3.30;;;;;;;;;;5043588;28;20588;-74
2022/09/27 03:35:12;;;;;;;6.25;2.88;;;;;;;;;;5043814;28;20029;-74
2022/09/27 03:37:39;;;;;;;7.60;3.28;;;;;;;;;;5041832;28;20342;-75
2022/09/27 03:40:06;;;;;;;10.18;4.07;;;;;;;;;;5043052;28;20031;-74
2022/09/27 03:42:32;;;;;;;7.95;3.58;;;;;;;;;;5043574;28;20017;-74
2022/09/27 03:44:59;;;;;;;6.32;2.97;;;;;;;;;;5043477;28;20377;-76
2022/09/27 03:47:25;;;;;;;6.45;3.28;;;;;;;;;;5042792;28;20493;-75
2022/09/27 03:49:51;;;;;;;6.47;3.45;;;;;;;;;;5043528;28;20497;-74
2022/09/27 03:52:17;;;;;;;6.32;3.30;;;;;;;;;;5041866;28;20025;-75
2022/09/27 03:54:44;;;;;;;6.47;3.50;;;;;;;;;;5043386;28;20033;-74
2022/09/27 03:57:10;;;;;;;4.35;3.17;;;;;;;;;;5042858;28;20028;-75
2022/09/27 03:59:37;;;;;;;7.97;3.60;;;;;;;;;;5042979;28;20028;-75
2022/09/27 04:02:03;;;;;;;7.07;3.38;;;;;;;;;;5043474;28;20051;-75
2022/09/27 04:04:29;;;;;;;5.88;3.25;;;;;;;;;;5041438;28;20481;-75
2022/09/27 04:06:56;;;;;;;7.50;2.88;;;;;;;;;;5043091;28;20029;-74
2022/09/27 04:09:22;;;;;;;6.38;3.00;;;;;;;;;;5042574;28;20066;-73
2022/09/27 04:11:48;;;;;;;9.25;3.30;;;;;;;;;;5043310;28;20234;-75
2022/09/27 04:14:14;;;;;;;8.60;3.53;;;;;;;;;;5031332;28;20035;-75
2022/09/27 04:16:41;;;;;;;9.75;3.63;;;;;;;;;;5042398;28;20021;-75
2022/09/27 04:19:07;;;;;;;7.05;2.78;;;;;;;;;;5040908;28;20024;-75
2022/09/27 04:21:34;;;;;;;6.47;3.40;;;;;;;;;;5035462;28;20509;-74
2022/09/27 04:24:00;;;;;;;7.53;3.20;;;;;;;;;;5042776;28;20119;-75
2022/09/27 04:26:26;;;;;;;5.82;3.22;;;;;;;;;;5040558;28;20048;-75
2022/09/27 04:28:53;;;;;;;6.97;2.97;;;;;;;;;;5042637;28;20039;-74
2022/09/27 04:31:19;;;;;;;7.80;3.53;;;;;;;;;;5042036;28;20025;-75
2022/09/27 04:33:45;;;;;;;5.43;2.90;;;;;;;;;;5042358;28;20547;-75
2022/09/27 04:36:27;;;;;;;12.88;3.10;;;;;;;;;;5041159;28;20021;-75
2022/09/27 04:38:58;;;;;;;7.10;3.08;;;;;;;;;;5043041;28;20032;-75
2022/09/27 04:41:25;;;;;;;7.10;2.83;;;;;;;;;;5042409;28;20156;-75
2022/09/27 04:43:51;;;;;;;5.85;2.78;;;;;;;;;;5042348;28;20036;-75
2022/09/27 04:46:19;;;;;;;6.10;2.38;;;;;;;;;;5040436;28;20033;-74
2022/09/27 04:48:45;;;;;;;7.97;3.13;;;;;;;;;;5042549;28;20044;-75
2022/09/27 04:51:11;;;;;;;3.75;2.13;;;;;;;;;;5042274;28;20107;-75
2022/09/27 04:53:37;;;;;;;5.72;2.13;;;;;;;;;;5041802;28;20017;-74
2022/09/27 04:56:04;;;;;;;5.82;2.30;;;;;;;;;;5042212;28;20027;-74
2022/09/27 04:58:32;;;;;;;4.07;1.90;;;;;;;;;;5042501;28;20088;-74
2022/09/27 05:00:59;;;;;;;6.32;2.65;;;;;;;;;;5040346;28;20476;-76
2022/09/27 05:03:25;;;;;;;5.00;2.22;;;;;;;;;;5041862;28;20033;-75
2022/09/27 05:05:51;;;;;;;6.18;2.38;;;;;;;;;;5042462;28;20475;-75
2022/09/27 05:08:17;;;;;;;5.00;2.03;;;;;;;;;;5040224;28;20425;-74
2022/09/27 05:10:44;;;;;;;7.28;2.35;;;;;;;;;;5036197;28;20032;-74
2022/09/27 05:13:10;;;;;;;5.72;2.33;;;;;;;;;;5038885;28;20041;-75
2022/09/27 05:15:36;;;;;;;3.58;2.28;;;;;;;;;;5040034;28;20021;-75
2022/09/27 05:18:02;;;;;;;6.88;2.33;;;;;;;;;;5040398;28;20170;-74
2022/09/27 05:20:29;;;;;;;5.45;2.03;;;;;;;;;;5039369;28;20028;-75
2022/09/27 05:22:55;;;;;;;7.47;2.92;;;;;;;;;;5039433;28;20031;-74
2022/09/27 05:25:22;;;;;;;11.50;2.85;;;;;;;;;;5041917;28;20014;-75
2022/09/27 05:27:49;;;;;;;8.93;2.63;;;;;;;;;;5041742;28;20401;-74
2022/09/27 05:30:15;;;;;;;5.55;2.35;;;;;;;;;;5041049;28;20082;-74
2022/09/27 05:32:48;;;;;;;5.05;2.00;;;;;;;;;;5022473;28;20032;-74
2022/09/27 05:35:17;;;;;;;7.63;1.95;;;;;;;;;;5041506;28;20075;-74
2022/09/27 05:37:43;;;;;;;13.57;2.60;;;;;;;;;;5033971;28;20021;-74
2022/09/27 05:40:09;;;;;;;5.35;2.00;;;;;;;;;;5039257;28;20505;-74
2022/09/27 05:42:38;;;;;;;5.68;2.28;;;;;;;;;;5041105;28;20032;-73
2022/09/27 05:45:06;;;;;;;6.20;2.40;;;;;;;;;;5041894;28;20017;-73
2022/09/27 05:47:32;;;;;;;4.40;2.35;;;;;;;;;;5041141;28;20362;-73
2022/09/27 05:49:58;;;;;;;6.25;2.33;;;;;;;;;;5039589;28;20020;-73
2022/09/27 05:52:25;;;;;;;5.05;2.10;;;;;;;;;;5023725;28;20074;-73
2022/09/27 05:54:51;;;;;;;5.10;1.80;;;;;;;;;;5041872;28;20082;-73
2022/09/27 05:57:17;;;;;;;6.97;2.17;;;;;;;;;;5040633;28;20473;-73
2022/09/27 05:59:43;;;;;;;6.10;2.00;;;;;;;;;;5040824;28;20029;-73
2022/09/27 06:02:12;;;;;;;7.82;2.20;;;;;;;;;;5039347;28;20090;-72
2022/09/27 06:04:39;;;;;;;5.05;1.92;;;;;;;;;;5041354;28;20029;-73
2022/09/27 06:07:05;;;;;;;4.00;1.88;;;;;;;;;;5041080;28;20033;-73
2022/09/27 06:09:31;;;;;;;5.03;1.92;;;;;;;;;;5040355;28;20100;-73
2022/09/27 06:11:58;;;;;;;6.72;2.50;;;;;;;;;;5040542;28;20040;-73
2022/09/27 06:14:24;;;;;;;6.80;2.30;;;;;;;;;;5039032;28;20013;-73
2022/09/27 06:16:50;;;;;;;6.88;2.47;;;;;;;;;;5041365;28;20082;-72
2022/09/27 06:19:16;;;;;;;11.13;2.85;;;;;;;;;;5041133;28;20059;-73
2022/09/27 06:21:42;;;;;;;5.05;1.92;;;;;;;;;;5040405;28;20060;-73
2022/09/27 06:24:08;;;;;;;7.13;1.98;;;;;;;;;;5040865;28;20031;-73
2022/09/27 06:26:35;;;;;;;10.32;2.17;;;;;;;;;;5038933;28;20286;-73
2022/09/27 06:29:02;;;;;;;14.77;3.97;;;;;;;;;;5040650;28;20017;-73
2022/09/27 06:31:28;;;;;;;12.50;2.97;;;;;;;;;;5040557;28;20044;-73
2022/09/27 06:33:54;;;;;;;11.60;1.92;;;;;;;;;;5042976;28;20414;-75
2022/09/27 06:36:20;;;;;;;13.48;2.75;;;;;;;;;;5044685;28;20035;-74
2022/09/27 06:38:47;;;;;;;8.02;2.17;;;;;;;;;;5044197;28;20025;-75
2022/09/27 06:41:14;;;;;;;5.93;1.90;;;;;;;;;;5038775;28;20051;-74
2022/09/27 06:43:40;;;;;;;28.40;4.45;;;;;;;;;;5031091;28;20025;-77
2022/09/27 06:46:06;;;;;;;11.32;2.05;;;;;;;;;;5030629;28;20029;-78
2022/09/27 06:48:34;;;;;;;7.78;1.77;;;;;;;;;;5032769;28;20237;-76
2022/09/27 06:51:00;;;;;;;18.50;3.30;;;;;;;;;;5034530;28;20412;-74
2022/09/27 06:53:28;;;;;;;20.13;3.38;;;;;;;;;;5047119;28;20025;-75
2022/09/27 06:55:57;;;;;;;5.65;1.80;;;;;;;;;;5043082;28;20035;-74
2022/09/27 07:01:09;;;;;;;8.43;1.60;;;;;;;;;;5042441;28;20036;-75
2022/09/27 07:03:38;;;;;;;7.13;1.50;;;;;;;;;;5022518;28;20064;-76
2022/09/27 07:06:05;;;;;;;7.68;1.92;;;;;;;;;;5034944;28;20060;-76
2022/09/27 07:08:32;;;;;;;10.10;2.25;;;;;;;;;;5043940;28;20494;-77
2022/09/27 07:11:02;;;;;;;3.85;1.38;;;;;;;;;;5042455;28;20025;-78
2022/09/27 07:13:31;;;;;;;22.10;3.10;;;;;;;;;;5044011;28;20036;-76
2022/09/27 07:15:58;;;;;;;7.13;2.22;;;;;;;;;;5039965;28;20060;-76
2022/09/27 07:18:24;;;;;;;5.10;1.80;;;;;;;;;;5026400;28;20029;-76
2022/09/27 07:20:50;;;;;;;11.05;2.45;;;;;;;;;;5040885;28;20017;-76
2022/09/27 07:23:16;;;;;;;9.75;2.35;;;;;;;;;;5042430;28;20055;-75
2022/09/27 07:25:43;;;;;;;7.45;1.67;;;;;;;;;;5040751;28;20021;-75
2022/09/27 07:28:12;;;;;;;6.35;1.60;;;;;;;;;;5040666;28;20021;-75
2022/09/27 07:30:38;;;;;;;3.65;1.33;;;;;;;;;;5039263;28;20102;-77
2022/09/27 07:33:05;;;;;;;8.13;1.85;;;;;;;;;;5042369;28;20673;-76
2022/09/27 07:35:32;;;;;;;5.40;1.70;;;;;;;;;;5041958;28;20468;-76
2022/09/27 07:37:58;;;;;;;6.40;1.75;;;;;;;;;;5043673;28;20435;-77
2022/09/27 07:40:25;;;;;;;14.05;2.60;;;;;;;;;;5028635;28;20021;-76
2022/09/27 07:42:58;;;;;;;4.57;1.73;;;;;;;;;;5042990;28;20032;-76
2022/09/27 07:45:25;;;;;;;3.40;1.42;;;;;;;;;;5041580;28;20100;-76
2022/09/27 07:47:51;;;;;;;11.38;2.65;;;;;;;;;;5043000;28;20082;-77
2022/09/27 07:50:18;;;;;;;9.10;1.80;;;;;;;;;;5043434;28;20021;-76
2022/09/27 07:52:45;;;;;;;6.70;2.15;;;;;;;;;;5043050;28;20033;-76
2022/09/27 07:55:12;;;;;;;10.88;2.58;;;;;;;;;;5030823;28;20107;-77
2022/09/27 07:57:39;;;;;;;11.13;2.22;;;;;;;;;;5028681;28;20029;-77
2022/09/27 08:00:06;;;;;;;9.90;2.38;;;;;;;;;;5043194;28;20043;-77
2022/09/27 08:02:32;;;;;;;4.75;1.70;;;;;;;;;;5025788;28;20024;-77
2022/09/27 08:05:04;;;;;;;4.13;1.55;;;;;;;;;;5042708;28;20742;-77
2022/09/27 08:07:32;;;;;;;5.65;1.80;;;;;;;;;;5042832;28;20029;-77
2022/09/27 08:10:01;;;;;;;5.15;1.92;;;;;;;;;;5042787;28;20385;-77
2022/09/27 08:12:29;;;;;;;7.07;1.77;;;;;;;;;;5042405;28;20029;-77
2022/09/27 08:15:00;;;;;;;5.38;1.83;;;;;;;;;;5043280;28;20044;-77
2022/09/27 08:17:46;;;;;;;2.90;1.73;;;;;;;;;;5041469;28;20055;-77
2022/09/27 08:20:13;;;;;;;8.95;2.25;;;;;;;;;;5029523;28;20032;-78
2022/09/27 08:22:57;;;;;;;13.98;3.53;;;;;;;;;;5033980;28;20053;-78
2022/09/27 08:26:10;;;;;;;12.98;3.67;;;;;;;;;;5026637;28;20024;-78
2022/09/27 08:28:27;;;;;;;9.27;3.00;;;;;;;;;;5033796;28;20025;-77
2022/09/27 08:30:58;;;;;;;5.85;2.53;;;;;;;;;;5040651;28;20056;-77
2022/09/27 08:33:35;;;;;;;8.18;2.63;;;;;;;;;;5042337;28;20063;-78
2022/09/27 08:36:02;;;;;;;10.60;3.10;;;;;;;;;;5026973;28;20489;-77
2022/09/27 08:38:30;;;;;;;6.60;2.35;;;;;;;;;;5042226;28;20745;-77
2022/09/27 08:41:13;;;;;;;7.55;2.42;;;;;;;;;;5042489;28;20021;-78
2022/09/27 08:44:02;;;;;;;13.38;2.70;;;;;;;;;;5040764;28;20021;-77
2022/09/27 08:46:36;;;;;;;29.05;5.07;;;;;;;;;;5040511;28;20029;-77
2022/09/27 08:49:10;;;;;;;12.80;2.85;;;;;;;;;;5041769;28;20571;-78
2022/09/27 08:51:36;;;;;;;6.70;2.00;;;;;;;;;;5042039;28;20127;-77
2022/09/27 08:54:06;;;;;;;5.30;2.92;;;;;;;;;;5041738;28;20083;-77
2022/09/27 08:56:32;;;;;;;7.70;2.45;;;;;;;;;;5041532;28;20017;-77
2022/09/27 08:59:04;;;;;;;5.03;1.92;;;;;;;;;;5041035;28;20230;-77
2022/09/27 09:01:30;;;;;;;10.85;2.53;;;;;;;;;;5042401;28;20449;-77
2022/09/27 09:03:58;;;;;;;5.25;1.90;;;;;;;;;;5042085;28;20387;-75
2022/09/27 09:06:28;;;;;;;5.47;1.90;;;;;;;;;;5041997;28;20017;-74
2022/09/27 09:09:01;;;;;;;6.00;2.33;;;;;;;;;;5041754;28;20049;-76
2022/09/27 09:14:53;;;;;;;6.88;1.98;;;;;;;;;;5035716;28;20059;-74
2022/09/27 09:17:20;;;;;;;6.05;1.90;;;;;;;;;;5041684;28;20186;-74
2022/09/27 09:20:02;;;;;;;7.07;2.53;;;;;;;;;;5041409;28;20286;-75
2022/09/27 09:22:44;;;;;;;11.00;3.08;;;;;;;;;;5037554;28;20053;-75
2022/09/27 09:25:21;;;;;;;16.67;2.88;;;;;;;;;;5040118;28;20017;-75
2022/09/27 09:27:54;;;;;;;4.28;1.63;;;;;;;;;;5041356;28;20025;-74
2022/09/27 09:30:24;;;;;;;8.45;2.63;;;;;;;;;;5039621;28;20087;-74
2022/09/27 09:33:04;;;;;;;9.70;2.55;;;;;;;;;;5041444;28;20503;-76
2022/09/27 09:35:30;;;;;;;10.80;3.13;;;;;;;;;;5040886;28;20071;-76
2022/09/27 09:37:59;;;;;;;5.93;2.17;;;;;;;;;;5040608;28;20028;-76
2022/09/27 09:40:36;;;;;;;6.95;1.88;;;;;;;;;;5041019;28;20029;-76
2022/09/27 09:43:24;;;;;;;6.57;2.20;;;;;;;;;;5041298;28;20508;-75
2022/09/27 09:45:52;;;;;;;5.97;2.15;;;;;;;;;;5020717;28;20033;-76
2022/09/27 09:48:38;;;;;;;4.28;2.25;;;;;;;;;;5031951;28;20074;-75
2022/09/27 09:51:09;;;;;;;3.97;1.83;;;;;;;;;;5040286;28;20045;-76
2022/09/27 09:53:46;;;;;;;7.72;2.53;;;;;;;;;;5041319;28;20037;-75
2022/09/27 09:56:15;;;;;;;6.40;2.33;;;;;;;;;;5039113;28;20732;-75
2022/09/27 09:59:08;;;;;;;6.28;1.90;;;;;;;;;;5024055;28;20155;-76
2022/09/27 10:01:41;;;;;;;10.52;2.60;;;;;;;;;;5031584;28;20040;-76
2022/09/27 10:04:09;;;;;;;5.28;2.10;;;;;;;;;;5040756;28;20497;-76
2022/09/27 10:06:36;;;;;;;5.95;1.88;;;;;;;;;;5039432;28;20489;-76
2022/09/27 10:09:02;;;;;;;12.35;2.40;;;;;;;;;;5040544;28;20024;-76
2022/09/27 10:11:35;;;;;;;12.05;2.17;;;;;;;;;;5040601;28;20017;-77
2022/09/27 10:14:01;;;;;;;7.13;2.00;;;;;;;;;;5040698;28;20032;-76
2022/09/27 10:16:28;;;;;;;14.77;3.03;;;;;;;;;;5033871;28;20090;-77
2022/09/27 10:18:57;;;;;;;6.18;2.22;;;;;;;;;;5039469;28;20078;-76
2022/09/27 10:21:28;;;;;;;10.93;2.00;;;;;;;;;;5039935;28;20048;-77
2022/09/27 10:24:13;;;;;;;4.15;1.60;;;;;;;;;;5040436;28;20032;-76
2022/09/27 10:26:42;;;;;;;9.05;2.20;;;;;;;;;;5035317;28;20028;-77
2022/09/27 10:29:22;;;;;;;4.60;1.98;;;;;;;;;;5038920;28;20476;-76
2022/09/27 10:31:49;;;;;;;4.40;1.80;;;;;;;;;;5037053;28;20573;-76
2022/09/27 10:34:21;;;;;;;3.55;1.75;;;;;;;;;;5040069;28;20306;-77
2022/09/27 10:37:01;;;;;;;8.90;1.75;;;;;;;;;;5040393;28;20024;-77
2022/09/27 10:39:28;;;;;;;4.82;2.00;;;;;;;;;;5031927;28;20021;-76
2022/09/27 10:41:54;;;;;;;5.63;2.00;;;;;;;;;;5039402;28;20028;-77
2022/09/27 10:44:24;;;;;;;7.50;2.20;;;;;;;;;;5040304;28;20120;-76
2022/09/27 10:47:01;;;;;;;6.38;2.35;;;;;;;;;;5040859;28;20547;-77
2022/09/27 10:49:27;;;;;;;4.78;1.60;;;;;;;;;;5038883;28;20521;-77
2022/09/27 10:51:55;;;;;;;8.55;2.17;;;;;;;;;;5039754;28;20033;-77
2022/09/27 10:54:21;;;;;;;5.25;1.88;;;;;;;;;;5039822;28;20017;-76
2022/09/27 10:56:54;;;;;;;8.32;1.60;;;;;;;;;;5022114;28;20029;-76
2022/09/27 10:59:21;;;;;;;6.82;1.88;;;;;;;;;;5039902;28;20260;-77
2022/09/27 11:01:49;;;;;;;5.68;1.67;;;;;;;;;;5040791;28;20032;-76
2022/09/27 11:04:28;;;;;;;7.88;1.70;;;;;;;;;;5040123;28;20469;-76
2022/09/27 11:07:14;;;;;;;4.20;1.75;;;;;;;;;;5040586;28;20021;-76
2022/09/27 11:09:47;;;;;;;3.53;1.48;;;;;;;;;;5034565;28;20424;-77
2022/09/27 11:12:19;;;;;;;4.63;1.50;;;;;;;;;;5039176;28;20036;-76
2022/09/27 11:14:46;;;;;;;3.60;1.50;;;;;;;;;;5035050;28;20120;-77
2022/09/27 11:17:17;;;;;;;5.65;1.55;;;;;;;;;;5039936;28;20021;-77
2022/09/27 11:19:52;;;;;;;6.13;1.80;;;;;;;;;;5024856;28;20258;-78
2022/09/27 11:22:22;;;;;;;3.45;1.50;;;;;;;;;;5025975;28;20416;-77
2022/09/27 11:25:06;;;;;;;4.35;1.58;;;;;;;;;;5044463;28;20024;-76
2022/09/27 11:27:32;;;;;;;2.45;1.33;;;;;;;;;;5044127;28;20017;-76
2022/09/27 11:30:07;;;;;;;4.88;1.40;;;;;;;;;;5041720;28;20025;-76
2022/09/27 11:32:52;;;;;;;4.10;1.33;;;;;;;;;;5036272;28;20028;-76
2022/09/27 11:35:25;;;;;;;4.22;1.55;;;;;;;;;;5044046;28;20082;-76
2022/09/27 11:38:02;;;;;;;4.63;1.80;;;;;;;;;;5044041;28;20094;-76
2022/09/27 11:41:07;;;;;;;9.05;1.80;;;;;;;;;;5043542;28;20104;-76
2022/09/27 11:43:47;;;;;;;6.40;3.90;;;;;;;;;;4950174;28;20083;-76
2022/09/27 11:46:43;;;;;;;4.28;1.55;;;;;;;;;;4950573;28;20125;-76
2022/09/27 11:49:18;;;;;;;4.65;1.35;;;;;;;;;;5003735;28;20045;-76
2022/09/27 11:52:00;;;;;;;4.93;1.50;;;;;;;;;;5037055;28;20040;-76
2022/09/27 11:54:29;;;;;;;6.50;2.40;;;;;;;;;;5042317;28;20737;-75
2022/09/27 11:57:17;;;;;;;5.38;2.00;;;;;;;;;;5027299;28;20513;-76
2022/09/27 11:59:53;;;;;;;7.78;2.10;;;;;;;;;;5042549;28;20071;-78
2022/09/27 12:02:38;;;;;;;5.32;2.25;;;;;;;;;;5042941;28;20029;-76
2022/09/27 12:05:19;;;;;;;4.00;1.77;;;;;;;;;;5039503;28;20109;-76
2022/09/27 12:07:45;;;;;;;3.88;2.05;;;;;;;;;;5041435;28;20022;-74
2022/09/27 12:10:14;;;;;;;4.88;1.73;;;;;;;;;;5041706;28;20473;-75
2022/09/27 12:12:44;;;;;;;4.47;1.73;;;;;;;;;;5039814;28;20048;-76
2022/09/27 12:15:18;;;;;;;5.10;1.73;;;;;;;;;;5043230;28;20289;-77
2022/09/27 12:17:46;;;;;;;4.25;1.75;;;;;;;;;;5040481;28;20087;-77
2022/09/27 12:20:18;;;;;;;3.60;1.67;;;;;;;;;;5043056;28;20018;-76
2022/09/27 12:22:48;;;;;;;6.47;1.65;;;;;;;;;;5029755;28;20684;-76
2022/09/27 12:25:17;;;;;;;4.85;1.50;;;;;;;;;;5042745;28;20029;-77
2022/09/27 12:27:47;;;;;;;4.00;1.40;;;;;;;;;;5042575;28;20032;-78
2022/09/27 12:30:23;;;;;;;4.07;1.50;;;;;;;;;;5041471;28;20516;-78
2022/09/27 12:33:03;;;;;;;7.15;2.00;;;;;;;;;;5018754;28;20519;-78
2022/09/27 12:35:32;;;;;;;4.00;1.70;;;;;;;;;;5042185;28;20025;-78
2022/09/27 12:37:58;;;;;;;12.55;1.55;;;;;;;;;;5043081;28;20025;-78
2022/09/27 12:40:29;;;;;;;5.75;1.67;;;;;;;;;;5023148;28;20403;-79
2022/09/27 12:43:00;;;;;;;6.65;1.65;;;;;;;;;;5039759;28;20044;-79
2022/09/27 12:45:46;;;;;;;10.63;2.13;;;;;;;;;;5042063;28;20061;-78
2022/09/27 12:48:31;;;;;;;5.97;1.58;;;;;;;;;;4987783;28;20282;-78
2022/09/27 12:51:13;;;;;;;3.58;1.45;;;;;;;;;;5036663;28;20682;-77
2022/09/27 12:53:58;;;;;;;5.20;1.52;;;;;;;;;;5036299;28;20869;-78
2022/09/27 12:56:43;;;;;;;7.93;2.17;;;;;;;;;;5037448;28;20816;-79
2022/09/27 12:59:21;;;;;;;4.55;1.70;;;;;;;;;;5039561;28;20029;-77
2022/09/27 13:01:48;;;;;;;6.68;1.80;;;;;;;;;;5044651;28;20465;-78
2022/09/27 13:04:26;;;;;;;7.00;1.50;;;;;;;;;;5038872;28;20021;-80
2022/09/27 13:07:05;;;;;;;4.30;1.58;;;;;;;;;;5043482;28;20029;-78
2022/09/27 13:09:37;;;;;;;4.50;1.50;;;;;;;;;;5039721;28;20100;-80
2022/09/27 13:12:03;;;;;;;2.88;1.50;;;;;;;;;;5041895;28;20025;-77
2022/09/27 13:14:52;;;;;;;4.35;2.05;;;;;;;;;;5040282;28;20024;-78
2022/09/27 13:17:41;;;;;;;4.70;1.45;;;;;;;;;;5020255;28;20021;-81
2022/09/27 13:20:29;;;;;;;5.05;2.13;;;;;;;;;;5024303;28;20112;-78
2022/09/27 13:23:24;;;;;;;3.58;1.42;;;;;;;;;;5020673;28;20083;-80
2022/09/27 13:26:08;;;;;;;;;;;;;;;;;;;;;
2022/09/27 13:28:57;;;;;;;5.80;1.73;;;;;;;;;;5033996;28;20021;-76
2022/09/27 13:31:44;;;;;;;7.03;1.80;;;;;;;;;;5039728;28;20027;-78
2022/09/27 13:37:23;;;;;;;12.05;2.95;;;;;;;;;;5031931;28;20025;-79
2022/09/27 13:40:19;;;;;;;19.58;3.65;;;;;;;;;;5039742;28;20112;-77
2022/09/27 13:43:04;;;;;;;;;;;;;;;;;;;;;
2022/09/27 13:45:48;;;;;;;4.85;1.80;;;;;;;;;;5040884;28;20043;-77
2022/09/27 13:48:46;;;;;;;5.05;1.95;;;;;;;;;;5020695;28;20109;-78
2022/09/27 13:51:33;;;;;;;5.43;1.85;;;;;;;;;;5033408;28;20045;-76
2022/09/27 13:54:25;;;;;;;6.50;1.75;;;;;;;;;;5038799;28;20793;-77
2022/09/27 13:57:08;;;;;;;8.95;1.83;;;;;;;;;;5028350;28;20028;-78
2022/09/27 13:59:43;;;;;;;5.13;1.60;;;;;;;;;;5016347;28;20040;-77
2022/09/27 14:02:09;;;;;;;6.03;1.80;;;;;;;;;;5039961;28;20021;-77
2022/09/27 14:04:47;;;;;;;4.10;1.50;;;;;;;;;;5037402;28;20058;-77
2022/09/27 14:07:16;;;;;;;4.07;1.77;;;;;;;;;;5021962;28;20025;-77
2022/09/27 14:09:45;;;;;;;5.22;1.65;;;;;;;;;;5037673;28;20025;-76
2022/09/27 14:12:17;;;;;;;4.10;1.88;;;;;;;;;;5038176;28;20074;-77
2022/09/27 14:14:44;;;;;;;5.88;1.70;;;;;;;;;;5037428;28;20833;-79
2022/09/27 14:17:11;;;;;;;4.10;1.50;;;;;;;;;;5033615;28;20029;-77
2022/09/27 14:19:43;;;;;;;8.15;2.15;;;;;;;;;;5037556;28;20028;-77
2022/09/27 14:22:09;;;;;;;;;;;;;;;;;;5035311;28;20533;-78
2022/09/27 14:24:35;;;;;;;6.03;2.00;;;;;;;;;;5031582;28;19912;-77
2022/09/27 14:27:20;;;;;;;3.30;1.40;;;;;;;;;;5040534;28;20108;-77
2022/09/27 14:29:48;;;;;;;5.72;1.60;;;;;;;;;;5032461;28;20025;-77
2022/09/27 14:32:19;;;;;;;4.60;1.48;;;;;;;;;;5042097;28;20032;-77
2022/09/27 14:34:46;;;;;;;5.47;2.00;;;;;;;;;;5024029;28;20043;-76
2022/09/27 14:37:24;;;;;;;3.83;1.63;;;;;;;;;;5039191;28;20542;-77
2022/09/27 14:39:55;;;;;;;4.85;1.50;;;;;;;;;;5040323;28;20347;-78
2022/09/27 14:42:23;;;;;;;4.22;1.58;;;;;;;;;;5040444;28;20060;-78
2022/09/27 14:44:50;;;;;;;4.68;1.75;;;;;;;;;;5037812;28;20532;-77
2022/09/27 14:47:18;;;;;;;5.10;1.75;;;;;;;;;;5038096;28;20396;-78
2022/09/27 14:49:51;;;;;;;7.22;1.73;;;;;;;;;;5039887;28;20538;-77
2022/09/27 14:52:26;;;;;;;9.02;2.17;;;;;;;;;;5035760;28;20033;-77
2022/09/27 14:55:05;;;;;;;7.82;1.85;;;;;;;;;;5044278;28;20029;-77
2022/09/27 14:57:32;;;;;;;6.85;1.75;;;;;;;;;;5031763;28;20113;-77
2022/09/27 15:00:02;;;;;;;4.95;2.22;;;;;;;;;;5029069;28;20032;-76
2022/09/27 15:02:28;;;;;;;2.35;1.55;;;;;;;;;;5027390;28;20043;-76
2022/09/27 15:04:54;;;;;;;12.48;2.85;;;;;;;;;;5029565;28;20031;-77
2022/09/27 15:07:21;;;;;;;5.82;2.25;;;;;;;;;;5028321;28;20021;-77
2022/09/27 15:09:48;;;;;;;4.55;1.80;;;;;;;;;;5038479;28;20017;-77
2022/09/27 15:12:19;;;;;;;6.38;1.92;;;;;;;;;;5017869;28;20049;-77
2022/09/27 15:14:47;;;;;;;3.90;2.03;;;;;;;;;;5025968;28;20013;-77